sensor_id;sensor_type;location;lat;lon;timestamp;P1;durP1;ratioP1;P2;durP2;ratioP2
33579;SDS011;19909;43.644;-79.438;2022-09-03T00:01:09;0.50;;;0.20;;
33579;SDS011;19909;43.644;-79.438;2022-09-03T00:03:44;0.10;;;0.10;;
33579;SDS011;19909;43.644;-79.438;2022-09-03T00:06:30;0.30;;;0.10;;
33579;SDS011;19909;43.644;-79.438;2022-09-03T00:09:11;0.38;;;0.10;;
33579;SDS011;19909;43.644;-79.438;2022-09-03T00:14:22;0.10;;;0.10;;
33579;SDS011;19909;43.644;-79.438;2022-09-03T00:17:18;0.20;;;0.10;;
33579;SDS011;19909;43.644;-79.438;2022-09-03T00:19:54;0.30;;;0.30;;
33579;SDS011;19909;43.644;-79.438;2022-09-03T00:22:31;0.53;;;0.20;;
33579;SDS011;19909;43.644;-79.438;2022-09-03T00:25:02;0.25;;;0.20;;
33579;SDS011;19909;43.644;-79.438;2022-09-03T00:27:36;0.30;;;0.28;;
33579;SDS011;19909;43.644;-79.438;2022-09-03T00:35:14;0.47;;;0.32;;
33579;SDS011;19909;43.644;-79.438;2022-09-03T00:37:45;0.40;;;0.30;;
33579;SDS011;19909;43.644;-79.438;2022-09-03T00:46:06;0.40;;;0.20;;
33579;SDS011;19909;43.644;-79.438;2022-09-03T00:48:54;0.40;;;0.20;;
33579;SDS011;19909;43.644;-79.438;2022-09-03T00:51:47;0.15;;;0.10;;
33579;SDS011;19909;43.644;-79.438;2022-09-03T01:00:25;0.47;;;0.30;;
33579;SDS011;19909;43.644;-79.438;2022-09-03T01:03:07;0.40;;;0.30;;
33579;SDS011;19909;43.644;-79.438;2022-09-03T01:08:30;0.20;;;0.20;;
33579;SDS011;19909;43.644;-79.438;2022-09-03T01:13:28;0.68;;;0.30;;
33579;SDS011;19909;43.644;-79.438;2022-09-03T01:16:04;0.50;;;0.30;;
33579;SDS011;19909;43.644;-79.438;2022-09-03T01:29:28;0.75;;;0.30;;
33579;SDS011;19909;43.644;-79.438;2022-09-03T01:41:25;0.75;;;0.30;;
33579;SDS011;19909;43.644;-79.438;2022-09-03T01:47:42;0.10;;;0.10;;
33579;SDS011;19909;43.644;-79.438;2022-09-03T01:50:34;0.22;;;0.20;;
33579;SDS011;19909;43.644;-79.438;2022-09-03T01:58:36;0.60;;;0.30;;
33579;SDS011;19909;43.644;-79.438;2022-09-03T02:01:24;0.25;;;0.20;;
33579;SDS011;19909;43.644;-79.438;2022-09-03T02:03:57;0.75;;;0.30;;
33579;SDS011;19909;43.644;-79.438;2022-09-03T02:06:24;0.20;;;0.17;;
33579;SDS011;19909;43.644;-79.438;2022-09-03T02:08:52;0.32;;;0.20;;
33579;SDS011;19909;43.644;-79.438;2022-09-03T02:11:18;0.13;;;0.10;;
33579;SDS011;19909;43.644;-79.438;2022-09-03T02:13:54;0.08;;;0.08;;
33579;SDS011;19909;43.644;-79.438;2022-09-03T02:16:24;0.10;;;0.10;;
33579;SDS011;19909;43.644;-79.438;2022-09-03T02:19:06;0.10;;;0.10;;
33579;SDS011;19909;43.644;-79.438;2022-09-03T02:21:38;0.30;;;0.10;;
33579;SDS011;19909;43.644;-79.438;2022-09-03T02:24:08;0.17;;;0.10;;
33579;SDS011;19909;43.644;-79.438;2022-09-03T02:26:34;0.22;;;0.17;;
33579;SDS011;19909;43.644;-79.438;2022-09-03T02:29:01;0.00;;;0.00;;
33579;SDS011;19909;43.644;-79.438;2022-09-03T02:31:28;0.13;;;0.10;;
33579;SDS011;19909;43.644;-79.438;2022-09-03T02:33:55;0.10;;;0.10;;
33579;SDS011;19909;43.644;-79.438;2022-09-03T02:36:26;0.30;;;0.20;;
33579;SDS011;19909;43.644;-79.438;2022-09-03T02:38:58;0.20;;;0.10;;
33579;SDS011;19909;43.644;-79.438;2022-09-03T02:41:25;0.22;;;0.15;;
33579;SDS011;19909;43.644;-79.438;2022-09-03T02:43:59;0.10;;;0.10;;
33579;SDS011;19909;43.644;-79.438;2022-09-03T02:47:20;0.20;;;0.10;;
33579;SDS011;19909;43.644;-79.438;2022-09-03T02:49:27;0.00;;;0.00;;
33579;SDS011;19909;43.644;-79.438;2022-09-03T02:51:57;0.32;;;0.10;;
33579;SDS011;19909;43.644;-79.438;2022-09-03T02:54:30;0.05;;;0.05;;
33579;SDS011;19909;43.644;-79.438;2022-09-03T02:57:00;0.13;;;0.13;;
33579;SDS011;19909;43.644;-79.438;2022-09-03T02:59:27;0.10;;;0.10;;
33579;SDS011;19909;43.644;-79.438;2022-09-03T03:01:53;0.10;;;0.10;;
33579;SDS011;19909;43.644;-79.438;2022-09-03T03:04:20;0.10;;;0.10;;
33579;SDS011;19909;43.644;-79.438;2022-09-03T03:06:46;0.00;;;0.00;;
33579;SDS011;19909;43.644;-79.438;2022-09-03T03:09:15;0.20;;;0.20;;
33579;SDS011;19909;43.644;-79.438;2022-09-03T03:11:42;0.20;;;0.10;;
33579;SDS011;19909;43.644;-79.438;2022-09-03T03:14:14;0.10;;;0.10;;
33579;SDS011;19909;43.644;-79.438;2022-09-03T03:16:41;0.00;;;0.00;;
33579;SDS011;19909;43.644;-79.438;2022-09-03T03:19:07;0.17;;;0.10;;
33579;SDS011;19909;43.644;-79.438;2022-09-03T03:21:33;0.30;;;0.05;;
33579;SDS011;19909;43.644;-79.438;2022-09-03T03:24:00;0.10;;;0.10;;
33579;SDS011;19909;43.644;-79.438;2022-09-03T03:26:27;0.10;;;0.10;;
33579;SDS011;19909;43.644;-79.438;2022-09-03T03:28:57;0.10;;;0.10;;
33579;SDS011;19909;43.644;-79.438;2022-09-03T03:31:25;0.20;;;0.10;;
33579;SDS011;19909;43.644;-79.438;2022-09-03T03:36:23;0.10;;;0.10;;
33579;SDS011;19909;43.644;-79.438;2022-09-03T03:38:54;0.10;;;0.10;;
33579;SDS011;19909;43.644;-79.438;2022-09-03T03:41:26;0.10;;;0.10;;
33579;SDS011;19909;43.644;-79.438;2022-09-03T03:43:56;0.20;;;0.10;;
33579;SDS011;19909;43.644;-79.438;2022-09-03T03:46:24;0.10;;;0.10;;
33579;SDS011;19909;43.644;-79.438;2022-09-03T03:48:50;0.00;;;0.00;;
33579;SDS011;19909;43.644;-79.438;2022-09-03T03:51:17;0.20;;;0.10;;
33579;SDS011;19909;43.644;-79.438;2022-09-03T03:53:44;0.20;;;0.15;;
33579;SDS011;19909;43.644;-79.438;2022-09-03T03:56:11;0.25;;;0.15;;
33579;SDS011;19909;43.644;-79.438;2022-09-03T03:58:39;0.20;;;0.10;;
33579;SDS011;19909;43.644;-79.438;2022-09-03T04:01:15;0.32;;;0.00;;
33579;SDS011;19909;43.644;-79.438;2022-09-03T04:03:44;0.10;;;0.10;;
33579;SDS011;19909;43.644;-79.438;2022-09-03T04:06:12;0.22;;;0.10;;
33579;SDS011;19909;43.644;-79.438;2022-09-03T04:08:41;0.10;;;0.10;;
33579;SDS011;19909;43.644;-79.438;2022-09-03T04:11:09;0.43;;;0.20;;
33579;SDS011;19909;43.644;-79.438;2022-09-03T04:13:40;0.57;;;0.25;;
33579;SDS011;19909;43.644;-79.438;2022-09-03T04:16:08;0.50;;;0.17;;
33579;SDS011;19909;43.644;-79.438;2022-09-03T04:18:36;0.20;;;0.10;;
33579;SDS011;19909;43.644;-79.438;2022-09-03T04:21:07;0.20;;;0.10;;
33579;SDS011;19909;43.644;-79.438;2022-09-03T04:23:41;0.08;;;0.05;;
33579;SDS011;19909;43.644;-79.438;2022-09-03T04:26:09;0.10;;;0.08;;
33579;SDS011;19909;43.644;-79.438;2022-09-03T04:28:40;0.25;;;0.10;;
33579;SDS011;19909;43.644;-79.438;2022-09-03T04:31:14;0.10;;;0.10;;
33579;SDS011;19909;43.644;-79.438;2022-09-03T04:33:41;0.35;;;0.20;;
33579;SDS011;19909;43.644;-79.438;2022-09-03T04:36:09;0.30;;;0.20;;
33579;SDS011;19909;43.644;-79.438;2022-09-03T04:38:43;0.45;;;0.30;;
33579;SDS011;19909;43.644;-79.438;2022-09-03T04:41:13;0.30;;;0.13;;
33579;SDS011;19909;43.644;-79.438;2022-09-03T04:43:44;0.20;;;0.10;;
33579;SDS011;19909;43.644;-79.438;2022-09-03T04:46:13;0.22;;;0.10;;
33579;SDS011;19909;43.644;-79.438;2022-09-03T04:48:40;0.22;;;0.20;;
33579;SDS011;19909;43.644;-79.438;2022-09-03T04:51:09;0.20;;;0.20;;
33579;SDS011;19909;43.644;-79.438;2022-09-03T04:53:38;0.25;;;0.10;;
33579;SDS011;19909;43.644;-79.438;2022-09-03T04:56:13;0.15;;;0.10;;
33579;SDS011;19909;43.644;-79.438;2022-09-03T04:58:44;0.20;;;0.20;;
33579;SDS011;19909;43.644;-79.438;2022-09-03T05:01:15;0.10;;;0.10;;
33579;SDS011;19909;43.644;-79.438;2022-09-03T05:03:43;0.25;;;0.20;;
33579;SDS011;19909;43.644;-79.438;2022-09-03T05:06:10;0.40;;;0.10;;
33579;SDS011;19909;43.644;-79.438;2022-09-03T05:08:37;0.43;;;0.32;;
33579;SDS011;19909;43.644;-79.438;2022-09-03T05:11:05;0.45;;;0.20;;
33579;SDS011;19909;43.644;-79.438;2022-09-03T05:13:33;0.20;;;0.10;;
33579;SDS011;19909;43.644;-79.438;2022-09-03T05:16:04;0.20;;;0.10;;
33579;SDS011;19909;43.644;-79.438;2022-09-03T05:18:33;0.30;;;0.10;;
33579;SDS011;19909;43.644;-79.438;2022-09-03T05:21:03;0.20;;;0.13;;
33579;SDS011;19909;43.644;-79.438;2022-09-03T05:23:35;0.10;;;0.10;;
33579;SDS011;19909;43.644;-79.438;2022-09-03T05:26:03;0.10;;;0.10;;
33579;SDS011;19909;43.644;-79.438;2022-09-03T05:28:35;0.20;;;0.10;;
33579;SDS011;19909;43.644;-79.438;2022-09-03T05:33:34;0.20;;;0.10;;
33579;SDS011;19909;43.644;-79.438;2022-09-03T05:36:05;0.47;;;0.20;;
33579;SDS011;19909;43.644;-79.438;2022-09-03T05:38:43;0.10;;;0.10;;
33579;SDS011;19909;43.644;-79.438;2022-09-03T05:41:10;0.30;;;0.20;;
33579;SDS011;19909;43.644;-79.438;2022-09-03T05:43:38;0.15;;;0.10;;
33579;SDS011;19909;43.644;-79.438;2022-09-03T05:46:09;0.32;;;0.17;;
33579;SDS011;19909;43.644;-79.438;2022-09-03T05:48:38;0.32;;;0.15;;
33579;SDS011;19909;43.644;-79.438;2022-09-03T05:51:06;0.68;;;0.20;;
33579;SDS011;19909;43.644;-79.438;2022-09-03T05:53:40;0.45;;;0.30;;
33579;SDS011;19909;43.644;-79.438;2022-09-03T05:56:09;0.32;;;0.20;;
33579;SDS011;19909;43.644;-79.438;2022-09-03T05:58:38;0.32;;;0.20;;
33579;SDS011;19909;43.644;-79.438;2022-09-03T06:01:11;0.30;;;0.20;;
33579;SDS011;19909;43.644;-79.438;2022-09-03T06:03:42;0.40;;;0.25;;
33579;SDS011;19909;43.644;-79.438;2022-09-03T06:06:10;0.30;;;0.20;;
33579;SDS011;19909;43.644;-79.438;2022-09-03T06:08:40;0.20;;;0.20;;
33579;SDS011;19909;43.644;-79.438;2022-09-03T06:11:09;0.20;;;0.20;;
33579;SDS011;19909;43.644;-79.438;2022-09-03T06:13:35;0.32;;;0.25;;
33579;SDS011;19909;43.644;-79.438;2022-09-03T06:16:03;0.55;;;0.20;;
33579;SDS011;19909;43.644;-79.438;2022-09-03T06:18:30;0.50;;;0.30;;
33579;SDS011;19909;43.644;-79.438;2022-09-03T06:20:57;0.28;;;0.20;;
33579;SDS011;19909;43.644;-79.438;2022-09-03T06:23:29;0.47;;;0.30;;
33579;SDS011;19909;43.644;-79.438;2022-09-03T06:26:03;0.38;;;0.30;;
33579;SDS011;19909;43.644;-79.438;2022-09-03T06:28:34;0.40;;;0.30;;
33579;SDS011;19909;43.644;-79.438;2022-09-03T06:31:02;0.10;;;0.10;;
33579;SDS011;19909;43.644;-79.438;2022-09-03T06:33:31;0.80;;;0.20;;
33579;SDS011;19909;43.644;-79.438;2022-09-03T06:35:59;0.28;;;0.20;;
33579;SDS011;19909;43.644;-79.438;2022-09-03T06:38:28;0.20;;;0.20;;
33579;SDS011;19909;43.644;-79.438;2022-09-03T06:41:00;0.55;;;0.30;;
33579;SDS011;19909;43.644;-79.438;2022-09-03T06:43:30;0.45;;;0.30;;
33579;SDS011;19909;43.644;-79.438;2022-09-03T06:48:32;0.77;;;0.40;;
33579;SDS011;19909;43.644;-79.438;2022-09-03T06:51:02;0.20;;;0.20;;
33579;SDS011;19909;43.644;-79.438;2022-09-03T06:53:34;2.13;;;0.32;;
33579;SDS011;19909;43.644;-79.438;2022-09-03T06:56:03;0.38;;;0.28;;
33579;SDS011;19909;43.644;-79.438;2022-09-03T06:58:38;0.30;;;0.20;;
33579;SDS011;19909;43.644;-79.438;2022-09-03T07:03:42;0.32;;;0.28;;
33579;SDS011;19909;43.644;-79.438;2022-09-03T07:06:13;0.57;;;0.30;;
33579;SDS011;19909;43.644;-79.438;2022-09-03T07:08:41;0.45;;;0.20;;
33579;SDS011;19909;43.644;-79.438;2022-09-03T07:11:12;1.70;;;0.20;;
33579;SDS011;19909;43.644;-79.438;2022-09-03T07:13:40;0.47;;;0.30;;
33579;SDS011;19909;43.644;-79.438;2022-09-03T07:16:10;0.30;;;0.20;;
33579;SDS011;19909;43.644;-79.438;2022-09-03T07:18:38;0.50;;;0.30;;
33579;SDS011;19909;43.644;-79.438;2022-09-03T07:21:09;0.40;;;0.40;;
33579;SDS011;19909;43.644;-79.438;2022-09-03T07:23:37;0.37;;;0.30;;
33579;SDS011;19909;43.644;-79.438;2022-09-03T07:26:13;0.50;;;0.30;;
33579;SDS011;19909;43.644;-79.438;2022-09-03T07:28:53;0.25;;;0.17;;
33579;SDS011;19909;43.644;-79.438;2022-09-03T07:31:22;0.30;;;0.22;;
33579;SDS011;19909;43.644;-79.438;2022-09-03T07:33:56;0.40;;;0.30;;
33579;SDS011;19909;43.644;-79.438;2022-09-03T07:36:25;1.08;;;0.32;;
33579;SDS011;19909;43.644;-79.438;2022-09-03T07:38:56;0.70;;;0.50;;
33579;SDS011;19909;43.644;-79.438;2022-09-03T07:41:28;1.58;;;0.40;;
33579;SDS011;19909;43.644;-79.438;2022-09-03T07:43:57;1.50;;;0.43;;
33579;SDS011;19909;43.644;-79.438;2022-09-03T07:46:30;0.35;;;0.35;;
33579;SDS011;19909;43.644;-79.438;2022-09-03T07:48:59;0.50;;;0.30;;
33579;SDS011;19909;43.644;-79.438;2022-09-03T07:51:30;0.60;;;0.30;;
33579;SDS011;19909;43.644;-79.438;2022-09-03T07:53:59;0.52;;;0.22;;
33579;SDS011;19909;43.644;-79.438;2022-09-03T07:56:28;1.88;;;0.57;;
33579;SDS011;19909;43.644;-79.438;2022-09-03T07:58:59;0.40;;;0.40;;
33579;SDS011;19909;43.644;-79.438;2022-09-03T08:01:27;1.10;;;0.52;;
33579;SDS011;19909;43.644;-79.438;2022-09-03T08:03:55;4.80;;;0.40;;
33579;SDS011;19909;43.644;-79.438;2022-09-03T08:06:23;0.80;;;0.50;;
33579;SDS011;19909;43.644;-79.438;2022-09-03T08:08:57;1.08;;;0.60;;
33579;SDS011;19909;43.644;-79.438;2022-09-03T08:11:29;1.58;;;0.55;;
33579;SDS011;19909;43.644;-79.438;2022-09-03T08:16:28;1.27;;;0.50;;
33579;SDS011;19909;43.644;-79.438;2022-09-03T08:18:56;0.65;;;0.40;;
33579;SDS011;19909;43.644;-79.438;2022-09-03T08:21:22;0.88;;;0.50;;
33579;SDS011;19909;43.644;-79.438;2022-09-03T08:23:50;0.60;;;0.40;;
33579;SDS011;19909;43.644;-79.438;2022-09-03T08:26:19;0.80;;;0.50;;
33579;SDS011;19909;43.644;-79.438;2022-09-03T08:28:46;0.50;;;0.40;;
33579;SDS011;19909;43.644;-79.438;2022-09-03T08:31:14;0.85;;;0.38;;
33579;SDS011;19909;43.644;-79.438;2022-09-03T08:33:43;0.50;;;0.50;;
33579;SDS011;19909;43.644;-79.438;2022-09-03T08:36:12;1.05;;;0.47;;
33579;SDS011;19909;43.644;-79.438;2022-09-03T08:38:44;0.70;;;0.45;;
33579;SDS011;19909;43.644;-79.438;2022-09-03T08:41:15;0.50;;;0.40;;
33579;SDS011;19909;43.644;-79.438;2022-09-03T08:46:34;1.00;;;0.80;;
33579;SDS011;19909;43.644;-79.438;2022-09-03T08:49:17;0.80;;;0.50;;
33579;SDS011;19909;43.644;-79.438;2022-09-03T08:51:57;0.70;;;0.60;;
33579;SDS011;19909;43.644;-79.438;2022-09-03T08:54:29;0.80;;;0.55;;
33579;SDS011;19909;43.644;-79.438;2022-09-03T08:56:59;2.20;;;0.50;;
33579;SDS011;19909;43.644;-79.438;2022-09-03T08:59:28;0.85;;;0.60;;
33579;SDS011;19909;43.644;-79.438;2022-09-03T09:02:16;0.95;;;0.57;;
33579;SDS011;19909;43.644;-79.438;2022-09-03T09:05:11;0.60;;;0.50;;
33579;SDS011;19909;43.644;-79.438;2022-09-03T09:07:52;1.10;;;0.50;;
33579;SDS011;19909;43.644;-79.438;2022-09-03T09:10:46;0.82;;;0.50;;
33579;SDS011;19909;43.644;-79.438;2022-09-03T09:13:23;0.57;;;0.40;;
33579;SDS011;19909;43.644;-79.438;2022-09-03T09:16:18;0.70;;;0.50;;
33579;SDS011;19909;43.644;-79.438;2022-09-03T09:18:56;0.60;;;0.40;;
33579;SDS011;19909;43.644;-79.438;2022-09-03T09:24:22;0.68;;;0.40;;
33579;SDS011;19909;43.644;-79.438;2022-09-03T09:27:08;0.50;;;0.40;;
33579;SDS011;19909;43.644;-79.438;2022-09-03T09:29:37;0.68;;;0.50;;
33579;SDS011;19909;43.644;-79.438;2022-09-03T09:32:05;0.60;;;0.40;;
33579;SDS011;19909;43.644;-79.438;2022-09-03T09:34:36;0.30;;;0.30;;
33579;SDS011;19909;43.644;-79.438;2022-09-03T09:37:13;0.65;;;0.40;;
33579;SDS011;19909;43.644;-79.438;2022-09-03T09:39:52;0.20;;;0.20;;
33579;SDS011;19909;43.644;-79.438;2022-09-03T09:42:22;0.20;;;0.20;;
33579;SDS011;19909;43.644;-79.438;2022-09-03T09:44:49;0.38;;;0.30;;
33579;SDS011;19909;43.644;-79.438;2022-09-03T09:47:25;0.35;;;0.30;;
33579;SDS011;19909;43.644;-79.438;2022-09-03T09:49:59;0.43;;;0.40;;
33579;SDS011;19909;43.644;-79.438;2022-09-03T09:52:29;0.70;;;0.35;;
33579;SDS011;19909;43.644;-79.438;2022-09-03T09:55:06;0.47;;;0.30;;
33579;SDS011;19909;43.644;-79.438;2022-09-03T09:57:40;0.47;;;0.25;;
33579;SDS011;19909;43.644;-79.438;2022-09-03T10:00:07;0.22;;;0.20;;
33579;SDS011;19909;43.644;-79.438;2022-09-03T10:02:39;0.55;;;0.30;;
33579;SDS011;19909;43.644;-79.438;2022-09-03T10:05:28;0.30;;;0.20;;
33579;SDS011;19909;43.644;-79.438;2022-09-03T10:08:01;0.20;;;0.20;;
33579;SDS011;19909;43.644;-79.438;2022-09-03T10:10:30;0.30;;;0.23;;
33579;SDS011;19909;43.644;-79.438;2022-09-03T10:16:00;0.20;;;0.17;;
33579;SDS011;19909;43.644;-79.438;2022-09-03T10:21:29;0.40;;;0.30;;
33579;SDS011;19909;43.644;-79.438;2022-09-03T10:24:34;0.20;;;0.20;;
33579;SDS011;19909;43.644;-79.438;2022-09-03T10:27:23;0.47;;;0.30;;
33579;SDS011;19909;43.644;-79.438;2022-09-03T10:29:50;0.35;;;0.20;;
33579;SDS011;19909;43.644;-79.438;2022-09-03T10:38:01;0.22;;;0.20;;
33579;SDS011;19909;43.644;-79.438;2022-09-03T10:40:49;0.20;;;0.20;;
33579;SDS011;19909;43.644;-79.438;2022-09-03T10:46:35;0.30;;;0.30;;
33579;SDS011;19909;43.644;-79.438;2022-09-03T10:52:14;0.20;;;0.20;;
33579;SDS011;19909;43.644;-79.438;2022-09-03T10:55:00;0.17;;;0.17;;
33579;SDS011;19909;43.644;-79.438;2022-09-03T11:00:14;0.43;;;0.30;;
33579;SDS011;19909;43.644;-79.438;2022-09-03T11:08:20;0.20;;;0.20;;
33579;SDS011;19909;43.644;-79.438;2022-09-03T11:10:51;0.30;;;0.20;;
33579;SDS011;19909;43.644;-79.438;2022-09-03T11:16:06;0.20;;;0.13;;
33579;SDS011;19909;43.644;-79.438;2022-09-03T11:18:57;0.38;;;0.30;;
33579;SDS011;19909;43.644;-79.438;2022-09-03T11:21:30;0.38;;;0.20;;
33579;SDS011;19909;43.644;-79.438;2022-09-03T11:26:38;0.20;;;0.10;;
33579;SDS011;19909;43.644;-79.438;2022-09-03T11:29:11;0.20;;;0.20;;
33579;SDS011;19909;43.644;-79.438;2022-09-03T11:32:00;0.45;;;0.20;;
33579;SDS011;19909;43.644;-79.438;2022-09-03T11:37:05;0.20;;;0.17;;
33579;SDS011;19909;43.644;-79.438;2022-09-03T11:39:42;0.20;;;0.17;;
33579;SDS011;19909;43.644;-79.438;2022-09-03T11:42:11;0.20;;;0.20;;
33579;SDS011;19909;43.644;-79.438;2022-09-03T11:44:58;0.10;;;0.10;;
33579;SDS011;19909;43.644;-79.438;2022-09-03T11:47:38;0.28;;;0.20;;
33579;SDS011;19909;43.644;-79.438;2022-09-03T11:50:23;0.45;;;0.30;;
33579;SDS011;19909;43.644;-79.438;2022-09-03T11:52:52;0.20;;;0.20;;
33579;SDS011;19909;43.644;-79.438;2022-09-03T11:55:32;0.70;;;0.30;;
33579;SDS011;19909;43.644;-79.438;2022-09-03T11:58:33;0.40;;;0.25;;
33579;SDS011;19909;43.644;-79.438;2022-09-03T12:01:07;0.40;;;0.20;;
33579;SDS011;19909;43.644;-79.438;2022-09-03T12:03:46;0.35;;;0.20;;
33579;SDS011;19909;43.644;-79.438;2022-09-03T12:06:27;0.30;;;0.20;;
33579;SDS011;19909;43.644;-79.438;2022-09-03T12:12:10;0.77;;;0.20;;
33579;SDS011;19909;43.644;-79.438;2022-09-03T12:20:01;0.17;;;0.13;;
33579;SDS011;19909;43.644;-79.438;2022-09-03T12:22:28;0.30;;;0.20;;
33579;SDS011;19909;43.644;-79.438;2022-09-03T12:25:06;0.20;;;0.20;;
33579;SDS011;19909;43.644;-79.438;2022-09-03T12:27:34;0.20;;;0.20;;
33579;SDS011;19909;43.644;-79.438;2022-09-03T12:30:02;0.17;;;0.17;;
33579;SDS011;19909;43.644;-79.438;2022-09-03T12:32:32;0.47;;;0.20;;
33579;SDS011;19909;43.644;-79.438;2022-09-03T12:35:22;0.20;;;0.15;;
33579;SDS011;19909;43.644;-79.438;2022-09-03T12:37:50;1.88;;;0.30;;
33579;SDS011;19909;43.644;-79.438;2022-09-03T12:40:25;4.25;;;0.30;;
33579;SDS011;19909;43.644;-79.438;2022-09-03T12:42:53;1.70;;;0.40;;
33579;SDS011;19909;43.644;-79.438;2022-09-03T12:45:23;1.38;;;0.20;;
33579;SDS011;19909;43.644;-79.438;2022-09-03T12:47:51;1.85;;;0.30;;
33579;SDS011;19909;43.644;-79.438;2022-09-03T12:50:22;0.40;;;0.30;;
33579;SDS011;19909;43.644;-79.438;2022-09-03T12:52:53;1.70;;;0.20;;
33579;SDS011;19909;43.644;-79.438;2022-09-03T12:55:31;1.95;;;0.35;;
33579;SDS011;19909;43.644;-79.438;2022-09-03T13:00:27;1.58;;;0.25;;
33579;SDS011;19909;43.644;-79.438;2022-09-03T13:05:31;0.20;;;0.20;;
33579;SDS011;19909;43.644;-79.438;2022-09-03T13:08:07;0.25;;;0.25;;
33579;SDS011;19909;43.644;-79.438;2022-09-03T13:10:38;0.10;;;0.10;;
33579;SDS011;19909;43.644;-79.438;2022-09-03T13:13:28;0.75;;;0.20;;
33579;SDS011;19909;43.644;-79.438;2022-09-03T13:16:05;0.10;;;0.10;;
33579;SDS011;19909;43.644;-79.438;2022-09-03T13:18:57;0.35;;;0.30;;
33579;SDS011;19909;43.644;-79.438;2022-09-03T13:32:24;1.55;;;0.20;;
33579;SDS011;19909;43.644;-79.438;2022-09-03T13:37:54;0.13;;;0.10;;
33579;SDS011;19909;43.644;-79.438;2022-09-03T13:43:03;0.10;;;0.08;;
33579;SDS011;19909;43.644;-79.438;2022-09-03T13:48:38;0.30;;;0.20;;
33579;SDS011;19909;43.644;-79.438;2022-09-03T13:51:28;0.20;;;0.20;;
33579;SDS011;19909;43.644;-79.438;2022-09-03T14:02:06;0.10;;;0.10;;
33579;SDS011;19909;43.644;-79.438;2022-09-03T14:08:03;0.52;;;0.30;;
33579;SDS011;19909;43.644;-79.438;2022-09-03T14:15:56;0.57;;;0.30;;
33579;SDS011;19909;43.644;-79.438;2022-09-03T14:18:34;0.28;;;0.20;;
33579;SDS011;19909;43.644;-79.438;2022-09-03T14:26:14;0.40;;;0.25;;
33579;SDS011;19909;43.644;-79.438;2022-09-03T14:29:01;0.57;;;0.35;;
33579;SDS011;19909;43.644;-79.438;2022-09-03T14:39:51;0.20;;;0.17;;
33579;SDS011;19909;43.644;-79.438;2022-09-03T14:43:06;0.32;;;0.17;;
33579;SDS011;19909;43.644;-79.438;2022-09-03T14:51:00;0.15;;;0.10;;
33579;SDS011;19909;43.644;-79.438;2022-09-03T14:54:04;0.20;;;0.20;;
33579;SDS011;19909;43.644;-79.438;2022-09-03T14:59:41;0.10;;;0.10;;
33579;SDS011;19909;43.644;-79.438;2022-09-03T15:05:38;0.20;;;0.20;;
33579;SDS011;19909;43.644;-79.438;2022-09-03T15:10:58;0.20;;;0.20;;
33579;SDS011;19909;43.644;-79.438;2022-09-03T15:13:30;0.57;;;0.20;;
33579;SDS011;19909;43.644;-79.438;2022-09-03T15:26:50;0.47;;;0.20;;
33579;SDS011;19909;43.644;-79.438;2022-09-03T15:29:26;0.10;;;0.10;;
33579;SDS011;19909;43.644;-79.438;2022-09-03T15:40:04;0.20;;;0.20;;
33579;SDS011;19909;43.644;-79.438;2022-09-03T15:42:46;0.30;;;0.30;;
33579;SDS011;19909;43.644;-79.438;2022-09-03T15:50:48;0.10;;;0.10;;
33579;SDS011;19909;43.644;-79.438;2022-09-03T15:53:35;0.30;;;0.20;;
33579;SDS011;19909;43.644;-79.438;2022-09-03T16:17:56;0.20;;;0.10;;
33579;SDS011;19909;43.644;-79.438;2022-09-03T16:20:48;0.35;;;0.20;;
33579;SDS011;19909;43.644;-79.438;2022-09-03T16:23:54;0.22;;;0.20;;
33579;SDS011;19909;43.644;-79.438;2022-09-03T16:26:25;0.40;;;0.30;;
33579;SDS011;19909;43.644;-79.438;2022-09-03T16:28:59;0.20;;;0.20;;
33579;SDS011;19909;43.644;-79.438;2022-09-03T16:42:48;0.30;;;0.30;;
33579;SDS011;19909;43.644;-79.438;2022-09-03T16:45:41;0.43;;;0.30;;
33579;SDS011;19909;43.644;-79.438;2022-09-03T16:48:33;0.20;;;0.20;;
33579;SDS011;19909;43.644;-79.438;2022-09-03T16:51:10;0.50;;;0.20;;
33579;SDS011;19909;43.644;-79.438;2022-09-03T16:56:38;0.20;;;0.20;;
33579;SDS011;19909;43.644;-79.438;2022-09-03T16:59:10;0.32;;;0.20;;
33579;SDS011;19909;43.644;-79.438;2022-09-03T17:02:03;0.52;;;0.43;;
33579;SDS011;19909;43.644;-79.438;2022-09-03T17:07:53;0.20;;;0.20;;
33579;SDS011;19909;43.644;-79.438;2022-09-03T17:22:31;0.25;;;0.25;;
33579;SDS011;19909;43.644;-79.438;2022-09-03T17:25:07;0.20;;;0.20;;
33579;SDS011;19909;43.644;-79.438;2022-09-03T17:33:25;0.20;;;0.20;;
33579;SDS011;19909;43.644;-79.438;2022-09-03T17:48:59;0.30;;;0.30;;
33579;SDS011;19909;43.644;-79.438;2022-09-03T17:54:55;0.20;;;0.20;;
33579;SDS011;19909;43.644;-79.438;2022-09-03T17:57:19;0.10;;;0.10;;
33579;SDS011;19909;43.644;-79.438;2022-09-03T18:00:02;0.20;;;0.20;;
33579;SDS011;19909;43.644;-79.438;2022-09-03T18:11:21;0.30;;;0.20;;
33579;SDS011;19909;43.644;-79.438;2022-09-03T18:16:53;0.20;;;0.20;;
33579;SDS011;19909;43.644;-79.438;2022-09-03T18:19:38;0.20;;;0.20;;
33579;SDS011;19909;43.644;-79.438;2022-09-03T18:22:59;0.20;;;0.20;;
33579;SDS011;19909;43.644;-79.438;2022-09-03T18:28:58;0.22;;;0.22;;
33579;SDS011;19909;43.644;-79.438;2022-09-03T18:31:46;0.30;;;0.30;;
33579;SDS011;19909;43.644;-79.438;2022-09-03T18:34:31;0.20;;;0.20;;
33579;SDS011;19909;43.644;-79.438;2022-09-03T18:37:19;0.30;;;0.30;;
33579;SDS011;19909;43.644;-79.438;2022-09-03T18:40:07;0.20;;;0.20;;
33579;SDS011;19909;43.644;-79.438;2022-09-03T18:49:34;0.30;;;0.30;;
33579;SDS011;19909;43.644;-79.438;2022-09-03T19:01:38;0.20;;;0.20;;
33579;SDS011;19909;43.644;-79.438;2022-09-03T19:07:51;0.20;;;0.20;;
33579;SDS011;19909;43.644;-79.438;2022-09-03T19:13:42;0.30;;;0.30;;
33579;SDS011;19909;43.644;-79.438;2022-09-03T19:23:08;0.28;;;0.28;;
33579;SDS011;19909;43.644;-79.438;2022-09-03T19:25:53;0.30;;;0.20;;
33579;SDS011;19909;43.644;-79.438;2022-09-03T19:28:51;0.20;;;0.20;;
33579;SDS011;19909;43.644;-79.438;2022-09-03T19:31:58;0.13;;;0.13;;
33579;SDS011;19909;43.644;-79.438;2022-09-03T19:40:53;0.28;;;0.20;;
33579;SDS011;19909;43.644;-79.438;2022-09-03T19:43:51;0.20;;;0.20;;
33579;SDS011;19909;43.644;-79.438;2022-09-03T19:46:49;0.30;;;0.30;;
33579;SDS011;19909;43.644;-79.438;2022-09-03T19:52:55;0.30;;;0.30;;
33579;SDS011;19909;43.644;-79.438;2022-09-03T19:58:30;0.20;;;0.20;;
33579;SDS011;19909;43.644;-79.438;2022-09-03T20:01:18;0.30;;;0.30;;
33579;SDS011;19909;43.644;-79.438;2022-09-03T20:04:11;0.30;;;0.20;;
33579;SDS011;19909;43.644;-79.438;2022-09-03T20:07:02;0.20;;;0.20;;
33579;SDS011;19909;43.644;-79.438;2022-09-03T20:09:43;0.20;;;0.20;;
33579;SDS011;19909;43.644;-79.438;2022-09-03T20:12:32;0.30;;;0.30;;
33579;SDS011;19909;43.644;-79.438;2022-09-03T20:15:02;0.20;;;0.20;;
33579;SDS011;19909;43.644;-79.438;2022-09-03T20:20:25;0.20;;;0.20;;
33579;SDS011;19909;43.644;-79.438;2022-09-03T20:31:51;0.20;;;0.20;;
33579;SDS011;19909;43.644;-79.438;2022-09-03T20:34:27;0.20;;;0.20;;
33579;SDS011;19909;43.644;-79.438;2022-09-03T20:50:35;0.30;;;0.30;;
33579;SDS011;19909;43.644;-79.438;2022-09-03T20:53:23;0.40;;;0.30;;
33579;SDS011;19909;43.644;-79.438;2022-09-03T21:04:38;0.30;;;0.30;;
33579;SDS011;19909;43.644;-79.438;2022-09-03T21:10:14;0.30;;;0.30;;
33579;SDS011;19909;43.644;-79.438;2022-09-03T21:12:46;0.20;;;0.20;;
33579;SDS011;19909;43.644;-79.438;2022-09-03T21:15:37;0.47;;;0.30;;
33579;SDS011;19909;43.644;-79.438;2022-09-03T21:24:02;0.20;;;0.20;;
33579;SDS011;19909;43.644;-79.438;2022-09-03T21:26:34;0.25;;;0.25;;